createdAt,value
2022-10-18T00:01:23.315Z,69.70
2022-10-18T00:03:51.003Z,69.70
2022-10-18T00:06:18.643Z,69.76
2022-10-18T00:08:46.296Z,69.70
2022-10-18T00:11:14.001Z,69.67
2022-10-18T00:13:43.435Z,69.64
2022-10-18T00:16:16.720Z,69.54
2022-10-18T00:18:48.273Z,69.56
2022-10-18T00:21:19.893Z,69.62
2022-10-18T00:23:51.062Z,69.68
2022-10-18T00:26:26.518Z,69.69
2022-10-18T00:29:01.653Z,69.66
2022-10-18T00:31:38.578Z,69.53
2022-10-18T00:34:11.238Z,69.61
2022-10-18T00:36:41.304Z,69.61
2022-10-18T00:39:14.212Z,69.65
2022-10-18T00:41:41.987Z,69.63
2022-10-18T00:44:12.641Z,69.69
2022-10-18T00:46:48.276Z,69.60
2022-10-18T00:49:21.798Z,69.58
2022-10-18T00:52:00.382Z,69.54
2022-10-18T00:54:32.750Z,69.46
2022-10-18T00:57:02.421Z,69.40
2022-10-18T00:59:32.280Z,69.37
2022-10-18T01:02:04.487Z,69.26
2022-10-18T01:04:34.109Z,69.25
2022-10-18T01:07:20.117Z,69.17
2022-10-18T01:10:01.602Z,69.12
2022-10-18T01:12:47.617Z,69.07
2022-10-18T01:15:39.075Z,69.03
2022-10-18T01:18:30.249Z,68.98
2022-10-18T01:21:16.300Z,68.91
2022-10-18T01:24:22.093Z,68.89
2022-10-18T01:27:16.937Z,68.86
2022-10-18T01:29:53.638Z,68.86
2022-10-18T01:32:34.426Z,68.88
2022-10-18T01:35:07.777Z,68.92
2022-10-18T01:37:38.270Z,68.92
2022-10-18T01:40:09.281Z,68.98
2022-10-18T01:42:37.059Z,69.02
2022-10-18T01:45:07.955Z,69.04
2022-10-18T01:47:38.385Z,69.13
2022-10-18T01:50:06.908Z,69.14
2022-10-18T01:52:36.535Z,69.14
2022-10-18T01:55:06.568Z,69.30
2022-10-18T01:57:40.736Z,69.39
2022-10-18T02:00:25.086Z,69.47
2022-10-18T02:03:13.984Z,69.56
2022-10-18T02:06:16.888Z,69.59
2022-10-18T02:08:56.960Z,69.62
2022-10-18T02:11:28.344Z,69.65
2022-10-18T02:14:09.111Z,69.67
2022-10-18T02:16:45.948Z,69.59
2022-10-18T02:19:29.892Z,69.50
2022-10-18T02:22:00.730Z,69.59
2022-10-18T02:24:38.069Z,69.50
2022-10-18T02:27:07.675Z,69.56
2022-10-18T02:29:37.669Z,69.53
2022-10-18T02:32:26.459Z,69.58
2022-10-18T02:35:04.705Z,69.60
2022-10-18T02:37:40.469Z,69.65
2022-10-18T02:40:10.613Z,69.67
2022-10-18T02:42:48.775Z,69.65
2022-10-18T02:45:18.000Z,69.80
2022-10-18T02:47:45.771Z,69.78
2022-10-18T02:50:15.371Z,69.87
2022-10-18T02:52:46.557Z,69.86
2022-10-18T02:55:14.236Z,70.00
2022-10-18T02:57:41.923Z,70.13
2022-10-18T03:00:10.703Z,70.11
2022-10-18T03:02:38.386Z,70.12
2022-10-18T03:05:06.190Z,70.15
2022-10-18T03:07:34.013Z,70.18
2022-10-18T03:10:05.590Z,70.31
2022-10-18T03:12:33.461Z,70.28
2022-10-18T03:15:01.200Z,70.07
2022-10-18T03:17:29.031Z,69.96
2022-10-18T03:19:58.335Z,69.76
2022-10-18T03:25:01.417Z,69.27
2022-10-18T03:27:29.352Z,69.06
2022-10-18T03:30:01.547Z,68.84
2022-10-18T03:32:31.623Z,68.72
2022-10-18T03:35:01.196Z,68.64
2022-10-18T03:37:28.859Z,68.37
2022-10-18T03:39:56.597Z,68.28
2022-10-18T03:42:24.331Z,68.27
2022-10-18T03:44:52.039Z,68.20
2022-10-18T03:47:21.683Z,68.15
2022-10-18T03:49:52.001Z,67.94
2022-10-18T03:52:22.856Z,67.83
2022-10-18T03:54:50.540Z,67.82
2022-10-18T03:57:20.041Z,67.86
2022-10-18T03:59:48.806Z,67.80
2022-10-18T04:02:16.487Z,67.72
2022-10-18T04:04:44.147Z,67.73
2022-10-18T04:07:11.811Z,67.72
2022-10-18T04:09:39.539Z,67.75
2022-10-18T04:12:07.239Z,67.63
2022-10-18T04:14:34.860Z,67.61
2022-10-18T04:17:04.537Z,67.59
2022-10-18T04:19:34.161Z,67.56
2022-10-18T04:22:03.672Z,67.58
2022-10-18T04:24:33.278Z,67.60
2022-10-18T04:27:00.926Z,67.62
2022-10-18T04:29:28.574Z,67.61
2022-10-18T04:31:56.285Z,67.62
2022-10-18T04:34:24.355Z,67.62
2022-10-18T04:36:52.207Z,67.62
2022-10-18T04:39:22.030Z,67.62
2022-10-18T04:41:49.685Z,67.63
2022-10-18T04:44:17.334Z,67.65
2022-10-18T04:46:45.055Z,67.67
2022-10-18T04:49:12.835Z,67.68
2022-10-18T04:51:40.616Z,67.71
2022-10-18T04:54:08.329Z,67.74
2022-10-18T04:56:36.150Z,67.76
2022-10-18T04:59:03.935Z,67.79
2022-10-18T05:01:31.762Z,67.85
2022-10-18T05:03:59.587Z,67.89
2022-10-18T05:06:27.533Z,67.87
2022-10-18T05:08:57.010Z,67.91
2022-10-18T05:11:24.700Z,67.92
2022-10-18T05:13:52.447Z,67.96
2022-10-18T05:16:20.106Z,67.97
2022-10-18T05:18:48.576Z,67.94
2022-10-18T05:21:18.178Z,67.94
2022-10-18T05:23:47.723Z,67.98
2022-10-18T05:26:15.454Z,67.93
2022-10-18T05:28:43.144Z,67.89
2022-10-18T05:31:12.797Z,67.94
2022-10-18T05:33:40.605Z,67.88
2022-10-18T05:36:10.397Z,67.92
2022-10-18T05:38:44.300Z,67.94
2022-10-18T05:41:14.218Z,67.92
2022-10-18T05:43:41.904Z,67.96
2022-10-18T05:46:15.456Z,67.95
2022-10-18T05:48:44.716Z,67.92
2022-10-18T05:51:14.528Z,67.87
2022-10-18T05:53:42.246Z,67.83
2022-10-18T05:56:12.167Z,67.79
2022-10-18T05:58:42.768Z,67.80
2022-10-18T06:01:11.484Z,67.72
2022-10-18T06:03:39.218Z,67.70
2022-10-18T06:06:10.685Z,67.66
2022-10-18T06:08:41.964Z,67.63
2022-10-18T06:11:15.442Z,67.64
2022-10-18T06:13:48.517Z,67.50
2022-10-18T06:16:19.992Z,67.52
2022-10-18T06:18:50.776Z,67.39
2022-10-18T06:21:21.007Z,67.37
2022-10-18T06:23:51.826Z,67.28
2022-10-18T06:26:21.729Z,67.21
2022-10-18T06:28:49.642Z,67.03
2022-10-18T06:31:18.560Z,67.02
2022-10-18T06:33:48.515Z,67.02
2022-10-18T06:36:22.748Z,66.83
2022-10-18T06:38:51.720Z,66.70
2022-10-18T06:41:22.076Z,66.69
2022-10-18T06:43:53.791Z,66.59
2022-10-18T06:46:21.558Z,66.49
2022-10-18T06:48:51.005Z,66.28
2022-10-18T06:51:21.649Z,66.17
2022-10-18T06:53:59.617Z,66.05
2022-10-18T06:56:36.231Z,65.74
2022-10-18T06:59:03.922Z,65.60
2022-10-18T07:01:33.714Z,65.52
2022-10-18T07:04:04.404Z,65.32
2022-10-18T07:06:33.785Z,65.28
2022-10-18T07:09:05.592Z,65.12
2022-10-18T07:11:33.317Z,64.51
2022-10-18T07:14:04.971Z,64.52
2022-10-18T07:16:36.191Z,64.18
2022-10-18T07:19:03.872Z,63.89
2022-10-18T07:21:32.358Z,63.64
2022-10-18T07:24:01.952Z,63.43
2022-10-18T07:26:33.434Z,63.29
2022-10-18T07:29:07.849Z,63.07
2022-10-18T07:31:38.804Z,63.11
2022-10-18T07:34:10.723Z,62.96
2022-10-18T07:36:38.554Z,62.78
2022-10-18T07:39:07.152Z,62.22
2022-10-18T07:41:35.537Z,61.75
2022-10-18T07:44:05.959Z,61.95
2022-10-18T07:46:33.818Z,61.79
2022-10-18T07:49:03.276Z,61.53
2022-10-18T07:51:33.028Z,61.37
2022-10-18T07:54:00.755Z,61.22
2022-10-18T07:56:28.606Z,61.07
2022-10-18T07:58:58.080Z,60.90
2022-10-18T08:01:27.669Z,61.14
2022-10-18T08:03:55.405Z,60.98
2022-10-18T08:06:24.927Z,60.80
2022-10-18T08:08:53.972Z,60.16
2022-10-18T08:11:25.120Z,59.91
2022-10-18T08:13:54.949Z,59.56
2022-10-18T08:16:27.915Z,59.35
2022-10-18T08:18:59.164Z,59.17
2022-10-18T08:21:27.150Z,59.13
2022-10-18T08:23:56.643Z,59.00
2022-10-18T08:26:26.148Z,58.76
2022-10-18T08:28:54.352Z,58.29
2022-10-18T08:31:28.281Z,58.51
2022-10-18T08:33:58.138Z,57.74
2022-10-18T08:36:25.835Z,56.65
2022-10-18T08:38:53.523Z,56.33
2022-10-18T08:41:45.923Z,56.03
2022-10-18T08:44:30.021Z,56.11
2022-10-18T08:47:08.732Z,54.81
2022-10-18T08:49:52.384Z,54.48
2022-10-18T08:52:45.227Z,54.05
2022-10-18T08:55:20.993Z,52.76
2022-10-18T08:57:49.236Z,52.32
2022-10-18T09:00:19.655Z,51.25
2022-10-18T09:03:14.389Z,48.48
2022-10-18T09:05:53.363Z,47.43
2022-10-18T09:08:30.041Z,46.47
2022-10-18T09:11:12.207Z,44.20
2022-10-18T09:13:57.275Z,41.28
2022-10-18T09:16:54.386Z,37.98
2022-10-18T09:19:56.641Z,35.63
2022-10-18T09:22:57.950Z,34.55
2022-10-18T09:25:46.746Z,35.41
2022-10-18T09:28:23.302Z,36.43
2022-10-18T09:31:12.119Z,37.58
2022-10-18T09:33:58.901Z,37.88
2022-10-18T09:36:35.814Z,38.48
2022-10-18T09:39:16.111Z,39.32
2022-10-18T09:41:50.204Z,40.30
2022-10-18T09:44:41.443Z,40.80
2022-10-18T09:47:21.827Z,41.44
2022-10-18T09:50:01.984Z,41.80
2022-10-18T09:52:48.717Z,41.58
2022-10-18T09:55:25.102Z,41.72
2022-10-18T09:57:58.773Z,41.82
2022-10-18T10:00:33.750Z,41.83
2022-10-18T10:03:08.137Z,42.33
2022-10-18T10:05:35.808Z,42.72
2022-10-18T10:08:05.916Z,42.16
2022-10-18T10:10:38.315Z,42.63
2022-10-18T10:13:09.154Z,42.66
2022-10-18T10:15:38.299Z,42.70
2022-10-18T10:18:26.371Z,42.88
2022-10-18T10:20:59.704Z,43.49
2022-10-18T10:23:44.690Z,43.08
2022-10-18T10:26:32.193Z,42.87
2022-10-18T10:29:00.746Z,42.79
2022-10-18T10:31:31.924Z,42.82
2022-10-18T10:34:28.866Z,42.81
2022-10-18T10:36:56.818Z,42.86
2022-10-18T10:39:25.514Z,42.80
2022-10-18T10:41:58.782Z,41.28
2022-10-18T10:44:35.525Z,41.30
2022-10-18T10:47:06.890Z,41.89
2022-10-18T10:49:48.093Z,41.80
2022-10-18T10:52:29.082Z,41.61
2022-10-18T10:55:11.406Z,41.48
2022-10-18T10:57:55.901Z,41.67
2022-10-18T11:00:45.241Z,41.56
2022-10-18T11:03:34.743Z,41.78
2022-10-18T11:06:26.434Z,42.00
2022-10-18T11:08:59.149Z,41.82
2022-10-18T11:11:35.592Z,41.73
2022-10-18T11:14:27.076Z,41.71
2022-10-18T11:17:21.751Z,41.68
2022-10-18T11:20:10.737Z,41.41
2022-10-18T11:22:49.106Z,41.44
2022-10-18T11:25:18.506Z,41.62
2022-10-18T11:28:01.676Z,41.32
2022-10-18T11:30:53.549Z,41.62
2022-10-18T11:33:42.931Z,41.34
2022-10-18T11:37:09.741Z,40.90
2022-10-18T11:40:08.242Z,41.00
2022-10-18T11:43:03.559Z,41.35
2022-10-18T11:45:50.711Z,41.41
2022-10-18T11:48:46.201Z,41.65
2022-10-18T11:51:50.324Z,41.73
2022-10-18T11:55:10.079Z,42.05
2022-10-18T11:58:03.845Z,41.56
2022-10-18T12:00:50.987Z,41.84
2022-10-18T12:03:28.726Z,41.77
2022-10-18T12:06:01.895Z,40.79
2022-10-18T12:08:35.648Z,40.59
2022-10-18T12:11:15.247Z,40.89
2022-10-18T12:13:57.007Z,40.99
2022-10-18T12:16:50.058Z,40.55
2022-10-18T12:19:27.626Z,41.23
2022-10-18T12:22:07.472Z,40.82
2022-10-18T12:24:37.926Z,40.74
2022-10-18T12:27:06.064Z,40.79
2022-10-18T12:29:53.383Z,40.50
2022-10-18T12:32:38.499Z,40.53
2022-10-18T12:35:19.669Z,40.49
2022-10-18T12:38:17.859Z,40.29
2022-10-18T12:40:54.454Z,40.43
2022-10-18T12:43:38.573Z,40.44
2022-10-18T12:46:13.827Z,40.67
2022-10-18T12:48:50.650Z,40.66
2022-10-18T12:51:22.462Z,40.98
2022-10-18T12:53:57.109Z,41.28
2022-10-18T12:56:27.581Z,41.45
2022-10-18T12:59:15.899Z,41.16
2022-10-18T13:01:52.982Z,41.76
2022-10-18T13:04:28.574Z,41.70
2022-10-18T13:06:58.225Z,41.69
2022-10-18T13:09:36.980Z,41.65
2022-10-18T13:12:10.624Z,41.68
2022-10-18T13:15:13.364Z,41.72
2022-10-18T13:18:18.412Z,41.57
2022-10-18T13:21:10.126Z,41.56
2022-10-18T13:24:13.634Z,41.46
2022-10-18T13:30:03.072Z,42.04
2022-10-18T13:32:57.606Z,41.94
2022-10-18T13:35:49.135Z,42.03
2022-10-18T13:38:38.337Z,42.16
2022-10-18T13:41:12.628Z,42.12
2022-10-18T13:44:22.405Z,42.22
2022-10-18T13:46:50.183Z,42.25
2022-10-18T13:49:30.997Z,42.44
2022-10-18T13:52:40.479Z,42.62
2022-10-18T13:55:29.714Z,42.66
2022-10-18T13:58:25.212Z,43.14
2022-10-18T14:01:14.374Z,43.23
2022-10-18T14:04:21.677Z,43.49
2022-10-18T14:06:52.312Z,43.52
2022-10-18T14:09:40.227Z,43.77
2022-10-18T14:12:27.799Z,43.86
2022-10-18T14:15:03.839Z,43.78
2022-10-18T14:17:46.984Z,43.79
2022-10-18T14:20:29.373Z,43.86
2022-10-18T14:23:27.200Z,44.06
2022-10-18T14:26:29.863Z,44.35
2022-10-18T14:29:18.834Z,44.51
2022-10-18T14:31:56.431Z,44.75
2022-10-18T14:34:24.121Z,45.09
2022-10-18T14:36:51.972Z,45.53
2022-10-18T14:39:26.730Z,45.77
2022-10-18T14:41:58.092Z,45.90
2022-10-18T14:44:31.685Z,46.15
2022-10-18T14:47:15.577Z,46.32
2022-10-18T14:49:45.990Z,46.54
2022-10-18T14:52:17.365Z,46.80
2022-10-18T14:54:47.280Z,47.12
2022-10-18T14:57:33.951Z,47.31
2022-10-18T15:00:29.858Z,47.49
2022-10-18T15:03:00.581Z,47.95
2022-10-18T15:05:28.386Z,48.15
2022-10-18T15:08:00.186Z,48.57
2022-10-18T15:10:33.692Z,48.99
2022-10-18T15:13:10.175Z,49.49
2022-10-18T15:15:41.914Z,49.59
2022-10-18T15:18:23.061Z,49.88
2022-10-18T15:21:12.263Z,50.38
2022-10-18T15:23:39.928Z,50.67
2022-10-18T15:26:14.434Z,50.59
2022-10-18T15:28:54.353Z,50.88
2022-10-18T15:31:31.932Z,51.17
2022-10-18T15:34:20.387Z,51.25
2022-10-18T15:36:52.205Z,51.97
2022-10-18T15:39:31.281Z,52.58
2022-10-18T15:42:02.625Z,52.64
2022-10-18T15:44:46.559Z,52.75
2022-10-18T15:47:17.827Z,53.25
2022-10-18T15:49:45.490Z,53.62
2022-10-18T15:52:33.943Z,53.98
2022-10-18T15:55:30.909Z,54.31
2022-10-18T15:58:20.482Z,54.04
2022-10-18T16:00:50.684Z,54.94
2022-10-18T16:03:22.306Z,55.23
2022-10-18T16:06:00.633Z,55.41
2022-10-18T16:08:38.205Z,55.81
2022-10-18T16:11:09.307Z,55.80
2022-10-18T16:13:37.155Z,56.03
2022-10-18T16:16:05.131Z,56.25
2022-10-18T16:18:36.063Z,56.15
2022-10-18T16:21:03.925Z,56.19
2022-10-18T16:23:34.605Z,56.21
2022-10-18T16:26:02.383Z,56.16
2022-10-18T16:28:32.973Z,56.83
2022-10-18T16:31:04.252Z,57.13
2022-10-18T16:33:32.489Z,57.48
2022-10-18T16:36:00.629Z,57.78
2022-10-18T16:38:35.531Z,57.84
2022-10-18T16:41:07.366Z,58.15
2022-10-18T16:43:35.603Z,58.18
2022-10-18T16:46:07.861Z,58.26
2022-10-18T16:48:37.686Z,58.31
2022-10-18T16:51:05.627Z,59.30
2022-10-18T16:53:35.439Z,59.31
2022-10-18T16:56:12.595Z,59.47
2022-10-18T16:58:41.442Z,59.27
2022-10-18T17:01:14.209Z,59.59
2022-10-18T17:03:44.257Z,59.67
2022-10-18T17:06:26.605Z,60.08
2022-10-18T17:08:56.280Z,59.76
2022-10-18T17:11:29.408Z,60.28
2022-10-18T17:13:57.427Z,60.57
2022-10-18T17:16:30.075Z,60.37
2022-10-18T17:19:02.220Z,60.72
2022-10-18T17:21:34.684Z,60.50
2022-10-18T17:24:08.506Z,60.67
2022-10-18T17:26:36.296Z,60.95
2022-10-18T17:29:08.353Z,61.01
2022-10-18T17:31:36.280Z,61.33
2022-10-18T17:34:05.132Z,61.75
2022-10-18T17:36:33.803Z,61.58
2022-10-18T17:39:03.063Z,62.01
2022-10-18T17:41:31.392Z,61.63
2022-10-18T17:43:59.749Z,61.81
2022-10-18T17:46:27.947Z,61.94
2022-10-18T17:49:00.899Z,62.03
2022-10-18T17:51:28.860Z,62.25
2022-10-18T17:53:56.741Z,62.27
2022-10-18T17:56:31.174Z,62.38
2022-10-18T17:59:05.592Z,62.72
2022-10-18T18:01:34.467Z,62.71
2022-10-18T18:04:03.584Z,62.91
2022-10-18T18:06:39.065Z,62.91
2022-10-18T18:09:13.196Z,63.27
2022-10-18T18:11:44.135Z,63.26
2022-10-18T18:14:12.131Z,63.66
2022-10-18T18:16:44.041Z,63.89
2022-10-18T18:19:27.150Z,63.84
2022-10-18T18:21:59.880Z,64.09
2022-10-18T18:24:28.866Z,64.07
2022-10-18T18:27:00.600Z,64.22
2022-10-18T18:29:30.234Z,64.08
2022-10-18T18:32:00.562Z,64.21
2022-10-18T18:34:31.182Z,64.61
2022-10-18T18:36:59.306Z,64.57
2022-10-18T18:39:35.305Z,64.66
2022-10-18T18:42:06.914Z,64.70
2022-10-18T18:44:38.602Z,64.57
2022-10-18T18:47:10.875Z,64.74
2022-10-18T18:49:41.543Z,64.85
2022-10-18T18:52:09.660Z,65.01
2022-10-18T18:54:37.392Z,65.10
2022-10-18T18:57:10.601Z,65.23
2022-10-18T18:59:38.419Z,65.22
2022-10-18T19:02:07.279Z,65.46
2022-10-18T19:04:37.151Z,65.70
2022-10-18T19:07:04.837Z,65.80
2022-10-18T19:09:33.015Z,65.82
2022-10-18T19:12:00.811Z,65.73
2022-10-18T19:14:29.681Z,66.09
2022-10-18T19:17:04.925Z,66.17
2022-10-18T19:19:32.687Z,66.15
2022-10-18T19:22:03.626Z,66.25
2022-10-18T19:24:34.731Z,66.36
2022-10-18T19:27:14.506Z,66.49
2022-10-18T19:29:42.346Z,66.70
2022-10-18T19:32:14.286Z,66.68
2022-10-18T19:34:44.394Z,66.51
2022-10-18T19:37:17.232Z,66.70
2022-10-18T19:39:45.069Z,66.56
2022-10-18T19:42:18.628Z,66.58
2022-10-18T19:44:48.988Z,66.56
2022-10-18T19:47:21.409Z,66.46
2022-10-18T19:49:55.722Z,66.40
2022-10-18T19:52:23.397Z,66.22
2022-10-18T19:54:51.186Z,66.20
2022-10-18T19:57:18.865Z,66.21
2022-10-18T19:59:47.368Z,66.14
2022-10-18T20:02:15.282Z,66.09
2022-10-18T20:04:43.010Z,66.09
2022-10-18T20:07:11.091Z,66.21
2022-10-18T20:09:40.095Z,66.15
2022-10-18T20:12:09.596Z,66.00
2022-10-18T20:14:37.319Z,65.92
2022-10-18T20:17:06.074Z,65.96
2022-10-18T20:19:35.100Z,65.96
2022-10-18T20:22:03.245Z,65.84
2022-10-18T20:24:30.981Z,65.89
2022-10-18T20:26:58.645Z,65.96
2022-10-18T20:29:26.944Z,65.97
2022-10-18T20:31:56.331Z,65.90
2022-10-18T20:34:28.499Z,65.90
2022-10-18T20:36:56.230Z,65.72
2022-10-18T20:39:24.978Z,65.74
2022-10-18T20:41:52.669Z,65.69
2022-10-18T20:44:22.789Z,65.51
2022-10-18T20:46:50.699Z,65.46
2022-10-18T20:49:19.446Z,65.41
2022-10-18T20:51:49.783Z,65.33
2022-10-18T20:54:17.399Z,65.25
2022-10-18T20:56:45.872Z,65.19
2022-10-18T20:59:14.206Z,65.16
2022-10-18T21:01:42.098Z,65.07
2022-10-18T21:04:10.966Z,65.07
2022-10-18T21:06:42.755Z,65.09
2022-10-18T21:09:18.908Z,65.65
2022-10-18T21:11:50.748Z,66.28
2022-10-18T21:14:20.942Z,66.90
2022-10-18T21:16:50.526Z,66.95
2022-10-18T21:19:26.879Z,67.39
2022-10-18T21:21:58.669Z,67.65
2022-10-18T21:24:27.898Z,67.44
2022-10-18T21:26:56.842Z,67.88
2022-10-18T21:29:25.116Z,67.86
2022-10-18T21:31:55.794Z,67.69
2022-10-18T21:34:23.815Z,67.71
2022-10-18T21:36:53.012Z,67.65
2022-10-18T21:41:51.978Z,67.91
2022-10-18T21:44:20.276Z,67.41
2022-10-18T21:46:48.055Z,67.70
2022-10-18T21:49:16.510Z,67.44
2022-10-18T21:51:44.971Z,67.10
2022-10-18T21:54:16.325Z,67.30
2022-10-18T21:56:45.410Z,67.46
2022-10-18T21:59:14.850Z,67.47
2022-10-18T22:01:44.632Z,67.54
2022-10-18T22:04:21.845Z,67.69
2022-10-18T22:06:50.906Z,68.09
2022-10-18T22:09:21.353Z,68.63
2022-10-18T22:11:52.928Z,69.05
2022-10-18T22:14:22.458Z,69.50
2022-10-18T22:16:51.194Z,69.60
2022-10-18T22:19:20.391Z,70.44
2022-10-18T22:21:48.302Z,70.72
2022-10-18T22:24:17.927Z,70.75
2022-10-18T22:26:46.533Z,72.56
2022-10-18T22:29:17.477Z,72.20
2022-10-18T22:31:51.995Z,72.14
2022-10-18T22:34:23.041Z,72.21
2022-10-18T22:36:51.111Z,72.40
2022-10-18T22:39:19.920Z,73.43
2022-10-18T22:41:52.485Z,73.56
2022-10-18T22:44:20.175Z,74.04
2022-10-18T22:46:47.835Z,74.14
2022-10-18T22:49:17.333Z,74.26
2022-10-18T22:51:45.083Z,74.75
2022-10-18T22:54:15.213Z,74.93
2022-10-18T22:56:42.851Z,75.54
2022-10-18T22:59:11.231Z,75.80
2022-10-18T23:01:38.880Z,75.90
2022-10-18T23:04:06.816Z,76.43
2022-10-18T23:06:36.278Z,77.40
2022-10-18T23:09:07.817Z,78.19
2022-10-18T23:11:37.137Z,79.65
2022-10-18T23:14:06.362Z,79.58
2022-10-18T23:16:35.833Z,80.08
2022-10-18T23:19:03.747Z,80.01
2022-10-18T23:21:31.607Z,80.08
2022-10-18T23:23:59.303Z,80.53
2022-10-18T23:26:29.561Z,81.04
2022-10-18T23:28:57.386Z,81.15
2022-10-18T23:31:28.905Z,81.66
2022-10-18T23:34:01.275Z,81.66
2022-10-18T23:36:29.343Z,81.99
2022-10-18T23:38:57.949Z,81.57
2022-10-18T23:41:26.839Z,81.66
2022-10-18T23:43:54.905Z,82.12
2022-10-18T23:46:22.697Z,82.52
2022-10-18T23:48:50.654Z,82.12
2022-10-18T23:51:19.724Z,81.97
2022-10-18T23:53:47.483Z,81.78
2022-10-18T23:56:18.159Z,81.56
2022-10-18T23:58:46.337Z,81.36
